This is the latest recevied weather packets stored in our database for station/object SQ5LTL-2. If no packets are shown the sender has not sent any weather packets the latest 10 day(s).
| Time | Temp. | Humidity | Pressure | Rain* | Wind** | Luminosity | Snow |
|---|---|---|---|---|---|---|---|
| 1777777819 | 6.11° C | 84% | 1020.4 hPa | 0 mm | - | 5 W/m² | - |
| 1777777518 | 6.67° C | 85% | 1020.5 hPa | 0 mm | - | 3 W/m² | - |
| 1777777216 | 7.22° C | 84% | 1020.4 hPa | 0 mm | - | 2 W/m² | - |
| 1777776934 | 7.78° C | 83% | 1020.4 hPa | 0 mm | - | 1 W/m² | - |
| 1777776633 | 7.78° C | 83% | 1020.4 hPa | 0 mm | - | 1 W/m² | - |
| 1777776331 | 7.78° C | 82% | 1020.3 hPa | 0 mm | - | 0 W/m² | - |
| 1777776031 | 7.78° C | 82% | 1020.4 hPa | 0 mm | - | 0 W/m² | - |
| 1777775729 | 8.33° C | 81% | 1020.4 hPa | 0 mm | - | 0 W/m² | - |
| 1777775427 | 8.33° C | 80% | 1020.4 hPa | 0 mm | - | 0 W/m² | - |
| 1777775127 | 8.33° C | 81% | 1020.4 hPa | 0 mm | - | 0 W/m² | - |
| 1777774825 | 8.33° C | 81% | 1020.4 hPa | 0 mm | - | 0 W/m² | - |
| 1777774524 | 8.33° C | 80% | 1020.4 hPa | 0 mm | - | 0 W/m² | - |
| 1777773920 | 8.33° C | 80% | 1020.5 hPa | 0 mm | - | 0 W/m² | - |
| 1777773321 | 8.89° C | 80% | 1020.5 hPa | 0 mm | - | 0 W/m² | - |
| 1777772736 | 8.89° C | 80% | 1020.5 hPa | 0 mm | - | 0 W/m² | - |
| 1777772133 | 8.89° C | 79% | 1020.6 hPa | 0 mm | - | 0 W/m² | - |
| 1777770625 | 8.89° C | 79% | 1020.6 hPa | 0 mm | - | 0 W/m² | - |
| 1777769720 | 9.44° C | 78% | 1020.5 hPa | 0 mm | - | 0 W/m² | - |
| 1777767329 | 10° C | 76% | 1020.4 hPa | 0 mm | - | 0 W/m² | - |
| 1777767026 | 10° C | 76% | 1020.6 hPa | 0 mm | - | 0 W/m² | - |
| 1777766725 | 9.44° C | 78% | 1020.5 hPa | 0 mm | - | 0 W/m² | - |
| 1777766424 | 9.44° C | 78% | 1020.5 hPa | 0 mm | - | 0 W/m² | - |
| 1777765519 | 10° C | 76% | 1020.5 hPa | 0 mm | - | 0 W/m² | - |
| 1777764916 | 10° C | 75% | 1020.6 hPa | 0 mm | - | 0 W/m² | - |
| 1777761922 | 10.56° C | 72% | 1020.7 hPa | 0 mm | - | 0 W/m² | - |
* Rain latest hour (hover to see other rain measurements)
** Current wind speed in m/s (hover to see current wind gust speed)